createdAt,value
2022-10-25T00:03:10.857Z,98366.97
2022-10-25T00:08:03.289Z,98362.28
2022-10-25T00:12:55.220Z,98370.66
2022-10-25T00:17:47.269Z,98380.59
2022-10-25T00:22:39.712Z,98383.81
2022-10-25T00:27:31.364Z,98393.84
2022-10-25T00:32:23.028Z,98391.38
2022-10-25T00:37:14.694Z,98390.81
2022-10-25T00:42:06.482Z,98400.25
2022-10-25T00:46:58.564Z,98400.72
2022-10-25T00:51:54.010Z,98391.19
2022-10-25T00:56:48.464Z,98397.94
2022-10-25T01:01:41.700Z,98398.75
2022-10-25T01:06:46.955Z,98403.38
2022-10-25T01:11:38.630Z,98410.66
2022-10-25T01:16:46.124Z,98416.91
2022-10-25T01:21:45.909Z,98420.94
2022-10-25T01:27:00.012Z,98417.91
2022-10-25T01:32:20.455Z,98427.31
2022-10-25T01:37:20.897Z,98427.56
2022-10-25T01:42:49.903Z,98430.78
2022-10-25T01:47:59.107Z,98430.78
2022-10-25T01:52:50.824Z,98428.63
2022-10-25T01:58:07.172Z,98428.63
2022-10-25T02:03:26.780Z,98432.41
2022-10-25T02:08:48.979Z,98433.16
2022-10-25T02:13:44.283Z,98441.53
2022-10-25T02:18:39.448Z,98430.94
2022-10-25T02:23:34.584Z,98439.78
2022-10-25T02:28:28.972Z,98429.19
2022-10-25T02:33:20.984Z,98440.84
2022-10-25T02:38:12.912Z,98446.75
2022-10-25T02:43:04.605Z,98448.03
2022-10-25T02:47:56.292Z,98449.63
2022-10-25T02:52:48.326Z,98442.56
2022-10-25T02:57:40.624Z,98454.44
2022-10-25T03:02:32.402Z,98444.09
2022-10-25T03:07:24.394Z,98457.88
2022-10-25T03:12:16.450Z,98459.53
2022-10-25T03:17:08.273Z,98462.47
2022-10-25T03:22:00.053Z,98457.53
2022-10-25T03:26:51.860Z,98468.38
2022-10-25T03:31:44.325Z,98469.91
2022-10-25T03:36:36.159Z,98468.03
2022-10-25T03:41:27.784Z,98459.91
2022-10-25T03:46:19.530Z,98459.69
2022-10-25T03:51:11.164Z,98463.91
2022-10-25T03:56:03.176Z,98460.16
2022-10-25T04:00:55.075Z,98459.91
2022-10-25T04:05:47.324Z,98462.38
2022-10-25T04:10:39.594Z,98461.31
2022-10-25T04:15:32.286Z,98460.25
2022-10-25T04:20:24.079Z,98466.47
2022-10-25T04:25:15.953Z,98477.53
2022-10-25T04:30:08.042Z,98474.03
2022-10-25T04:34:59.714Z,98479.69
2022-10-25T04:39:51.522Z,98501.09
2022-10-25T04:44:43.432Z,98491.31
2022-10-25T04:49:35.060Z,98497.81
2022-10-25T04:54:26.750Z,98501.81
2022-10-25T04:59:18.493Z,98520.19
2022-10-25T05:04:10.273Z,98512.56
2022-10-25T05:09:02.071Z,98518.78
2022-10-25T05:13:53.825Z,98521.47
2022-10-25T05:18:46.050Z,98514.41
2022-10-25T05:23:37.775Z,98520.91
2022-10-25T05:28:29.539Z,98529.25
2022-10-25T05:33:21.202Z,98532.22
2022-10-25T05:38:12.854Z,98537.50
2022-10-25T05:43:04.542Z,98548.56
2022-10-25T05:47:56.430Z,98549.63
2022-10-25T05:52:48.545Z,98550.94
2022-10-25T05:57:40.731Z,98554.69
2022-10-25T06:02:32.594Z,98546.00
2022-10-25T06:07:24.353Z,98553.41
2022-10-25T06:12:15.990Z,98555.53
2022-10-25T06:17:07.671Z,98553.31
2022-10-25T06:21:59.295Z,98561.06
2022-10-25T06:26:50.854Z,98571.06
2022-10-25T06:31:43.416Z,98573.75
2022-10-25T06:36:35.195Z,98574.59
2022-10-25T06:41:28.411Z,98569.44
2022-10-25T06:46:22.307Z,98581.06
2022-10-25T06:51:15.007Z,98587.28
2022-10-25T06:56:14.362Z,98587.88
2022-10-25T07:01:09.041Z,98579.78
2022-10-25T07:06:35.905Z,98587.19
2022-10-25T07:11:30.250Z,98598.81
2022-10-25T07:16:22.173Z,98598.09
2022-10-25T07:21:13.860Z,98596.81
2022-10-25T07:26:05.618Z,98592.56
2022-10-25T07:30:57.377Z,98612.44
2022-10-25T07:36:05.805Z,98625.03
2022-10-25T07:41:01.873Z,98634.56
2022-10-25T07:45:53.919Z,98621.94
2022-10-25T07:50:45.676Z,98627.84
2022-10-25T07:55:37.271Z,98629.13
2022-10-25T08:00:29.691Z,98639.09
2022-10-25T08:05:21.299Z,98646.13
2022-10-25T08:10:12.942Z,98639.63
2022-10-25T08:15:05.009Z,98645.00
2022-10-25T08:19:56.744Z,98641.91
2022-10-25T08:24:48.665Z,98657.44
2022-10-25T08:29:40.262Z,98650.47
2022-10-25T08:34:33.229Z,98656.69
2022-10-25T08:39:25.133Z,98659.41
2022-10-25T08:44:45.797Z,98673.09
2022-10-25T08:50:03.867Z,98663.75
2022-10-25T08:55:01.764Z,98660.66
2022-10-25T08:59:59.220Z,98667.25
2022-10-25T09:04:53.629Z,98681.00
2022-10-25T09:09:54.905Z,98680.66
2022-10-25T09:15:23.417Z,98665.22
2022-10-25T09:20:30.243Z,98680.09
2022-10-25T09:25:30.244Z,98676.56
2022-10-25T09:30:21.956Z,98669.91
2022-10-25T09:35:38.407Z,98660.44
2022-10-25T09:40:48.014Z,98666.81
2022-10-25T09:46:03.802Z,98676.84
2022-10-25T09:51:13.226Z,98678.09
2022-10-25T09:56:05.415Z,98671.91
2022-10-25T10:01:01.333Z,98683.09
2022-10-25T10:06:00.302Z,98681.63
2022-10-25T10:10:53.965Z,98679.53
2022-10-25T10:16:14.696Z,98687.19
2022-10-25T10:21:12.328Z,98685.81
2022-10-25T10:26:12.981Z,98692.09
2022-10-25T10:31:08.467Z,98695.91
2022-10-25T10:37:04.626Z,98695.94
2022-10-25T11:03:35.340Z,98698.97
2022-10-25T11:08:29.544Z,98704.94
2022-10-25T11:13:23.867Z,98696.69
2022-10-25T11:18:17.462Z,98694.66
2022-10-25T11:23:15.098Z,98694.00
2022-10-25T11:28:31.042Z,98692.66
2022-10-25T11:33:44.844Z,98686.28
2022-10-25T11:39:12.149Z,98695.59
2022-10-25T11:44:35.129Z,98693.00
2022-10-25T11:50:03.822Z,98689.75
2022-10-25T11:55:18.079Z,98684.88
2022-10-25T12:00:17.443Z,98688.47
2022-10-25T12:05:15.634Z,98684.44
2022-10-25T12:10:10.114Z,98669.63
2022-10-25T12:15:03.859Z,98676.97
2022-10-25T12:19:59.460Z,98667.09
2022-10-25T12:25:14.316Z,98647.38
2022-10-25T12:30:14.868Z,98635.53
2022-10-25T12:35:28.806Z,98638.28
2022-10-25T12:45:47.810Z,98644.38
2022-10-25T12:50:57.878Z,98636.22
2022-10-25T12:56:01.256Z,98634.59
2022-10-25T13:00:53.126Z,98633.53
2022-10-25T13:06:03.919Z,98639.03
2022-10-25T13:11:01.656Z,98637.97
2022-10-25T13:15:55.495Z,98627.03
2022-10-25T13:20:48.849Z,98614.22
2022-10-25T13:25:49.599Z,98612.53
2022-10-25T13:30:42.651Z,98618.25
2022-10-25T13:35:37.883Z,98605.72
2022-10-25T13:40:31.669Z,98599.91
2022-10-25T13:45:40.811Z,98605.34
2022-10-25T13:50:41.960Z,98594.41
2022-10-25T13:55:39.770Z,98603.72
2022-10-25T14:00:34.817Z,98591.19
2022-10-25T14:05:57.627Z,98573.69
2022-10-25T14:10:50.861Z,98577.53
2022-10-25T14:15:58.486Z,98574.28
2022-10-25T14:20:55.364Z,98571.84
2022-10-25T14:25:58.025Z,98570.50
2022-10-25T14:30:58.231Z,98569.16
2022-10-25T14:35:52.553Z,98563.97
2022-10-25T14:40:57.652Z,98551.41
2022-10-25T14:46:02.098Z,98557.97
2022-10-25T14:50:56.105Z,98557.72
2022-10-25T14:56:00.554Z,98547.34
2022-10-25T15:01:02.470Z,98542.69
2022-10-25T15:05:54.608Z,98539.13
2022-10-25T15:10:49.974Z,98538.31
2022-10-25T15:15:45.280Z,98528.47
2022-10-25T15:20:37.062Z,98524.09
2022-10-25T15:25:32.016Z,98518.41
2022-10-25T15:30:44.053Z,98535.34
2022-10-25T15:35:45.443Z,98522.28
2022-10-25T15:40:38.892Z,98501.81
2022-10-25T15:45:32.385Z,98512.75
2022-10-25T15:50:25.590Z,98489.28
2022-10-25T15:55:27.316Z,98486.00
2022-10-25T16:00:25.565Z,98485.47
2022-10-25T16:05:31.895Z,98472.59
2022-10-25T16:10:25.071Z,98472.34
2022-10-25T16:15:18.919Z,98472.63
2022-10-25T16:20:20.543Z,98468.28
2022-10-25T16:25:13.296Z,98469.66
2022-10-25T16:30:05.558Z,98464.72
2022-10-25T16:34:57.815Z,98454.63
2022-10-25T16:39:49.474Z,98457.38
2022-10-25T16:44:41.140Z,98459.53
2022-10-25T16:49:33.043Z,98455.44
2022-10-25T16:54:24.846Z,98463.63
2022-10-25T16:59:16.976Z,98452.16
2022-10-25T17:04:09.892Z,98455.16
2022-10-25T17:09:01.695Z,98449.41
2022-10-25T17:13:53.554Z,98442.03
2022-10-25T17:18:45.578Z,98443.16
2022-10-25T17:23:38.236Z,98426.22
2022-10-25T17:28:30.668Z,98439.31
2022-10-25T17:33:22.618Z,98428.97
2022-10-25T17:38:15.609Z,98403.63
2022-10-25T17:43:07.527Z,98394.09
2022-10-25T17:48:00.529Z,98407.16
2022-10-25T17:52:52.353Z,98402.78
2022-10-25T17:57:43.991Z,98397.63
2022-10-25T18:02:36.012Z,98396.25
2022-10-25T18:07:30.052Z,98394.63
2022-10-25T18:12:24.602Z,98397.34
2022-10-25T18:17:16.495Z,98384.25
2022-10-25T18:22:08.469Z,98384.53
2022-10-25T18:27:00.144Z,98373.91
2022-10-25T18:31:51.799Z,98361.94
2022-10-25T18:36:43.810Z,98363.28
2022-10-25T18:41:35.751Z,98354.56
2022-10-25T18:46:32.713Z,98362.19
2022-10-25T18:51:26.950Z,98350.47
2022-10-25T18:56:21.256Z,98346.38
2022-10-25T19:01:17.223Z,98335.22
2022-10-25T19:06:09.753Z,98341.19
2022-10-25T19:11:06.609Z,98337.91
2022-10-25T19:15:59.188Z,98342.78
2022-10-25T19:20:50.946Z,98343.06
2022-10-25T19:25:42.824Z,98337.34
2022-10-25T19:30:39.450Z,98331.91
2022-10-25T19:35:31.400Z,98329.44
2022-10-25T19:40:23.237Z,98322.09
2022-10-25T19:45:14.886Z,98306.84
2022-10-25T19:50:07.863Z,98301.66
2022-10-25T19:54:59.737Z,98288.06
2022-10-25T19:59:51.748Z,98271.19
2022-10-25T20:04:43.637Z,98271.44
2022-10-25T20:09:35.701Z,98261.63
2022-10-25T20:14:27.759Z,98260.28
2022-10-25T20:19:19.540Z,98244.75
2022-10-25T20:24:11.391Z,98261.63
2022-10-25T20:29:16.982Z,98246.69
2022-10-25T20:34:11.974Z,98234.41
2022-10-25T20:39:04.318Z,98231.44
2022-10-25T20:43:59.842Z,98234.16
2022-10-25T20:48:52.083Z,98226.53
2022-10-25T20:53:45.664Z,98221.34
2022-10-25T20:58:37.536Z,98195.47
2022-10-25T21:03:31.049Z,98193.56
2022-10-25T21:08:23.616Z,98193.03
2022-10-25T21:13:15.303Z,98198.47
2022-10-25T21:18:06.900Z,98190.59
2022-10-25T21:22:58.616Z,98185.41
2022-10-25T21:27:54.002Z,98187.31
2022-10-25T21:32:45.658Z,98185.13
2022-10-25T21:37:37.321Z,98170.44
2022-10-25T21:42:32.496Z,98181.31
2022-10-25T21:47:24.334Z,98182.41
2022-10-25T21:52:16.030Z,98167.44
2022-10-25T21:57:07.911Z,98156.81
2022-10-25T22:02:00.005Z,98145.13
2022-10-25T22:06:51.865Z,98149.75
2022-10-25T22:11:43.501Z,98143.47
2022-10-25T22:16:35.561Z,98147.84
2022-10-25T22:21:29.951Z,98144.03
2022-10-25T22:26:22.106Z,98141.31
2022-10-25T22:31:16.889Z,98144.03
2022-10-25T22:36:13.382Z,98130.16
2022-10-25T22:41:09.650Z,98130.16
2022-10-25T22:46:04.332Z,98121.72
2022-10-25T22:50:56.046Z,98129.63
2022-10-25T22:55:59.013Z,98116.81
2022-10-25T23:00:51.501Z,98104.59
2022-10-25T23:05:43.284Z,98080.91
2022-10-25T23:10:34.972Z,98100.47
2022-10-25T23:15:26.682Z,98061.03
2022-10-25T23:20:18.349Z,98046.31
2022-10-25T23:25:10.078Z,98049.88
2022-10-25T23:30:01.887Z,98032.44
2022-10-25T23:34:56.289Z,98040.06
2022-10-25T23:39:48.795Z,98043.59
2022-10-25T23:44:40.634Z,98041.44
2022-10-25T23:49:32.473Z,98021.28
2022-10-25T23:54:25.414Z,98002.22
2022-10-25T23:59:17.209Z,98013.94
